ROMMA est une association bénévole à but non lucratif. Votre soutien est indispensable : ADHERER à ROMMA ou FAIRE un DON

St-Christophe/Guiers - Berland - (38, Isère)

Massif de la Chartreuse (533 m)   Longitude: 05° 46' 44" E   Latitude: 45° 25' 43" N Station partenaire n°32
 

Détail journalier du     <<     >>

Température Precipitation Humidité Pression Vent Dir Rafale Dir. rafale Ensol.
Heure (°C) (mm) (%) (hPa) (km/h) (km/h) (min)
01:00 11.407310235ENE10NE0
02:00 10.707510234ENE11ENE0
03:00 10.2076102306ENE0
04:00 9.707710233ENE6ENE0
05:00 8.908010242ENE6ENE0
06:00 8.608110242ENE6ENE0
07:00 8.408110243ENE8ENE0
08:00 8.508310251---6ENE0
09:00 10.1084102600---30
10:00 12.5076102605NO60
11:00 15.206210262OSO8OSO60
12:00 16.805910264ONO15SSO60
13:00 18.405210264OSO11SSO60
14:00 19.405310254OSO11O60
15:00 20.505410255ONO21OSO60
16:00 21.005010247SO18O60
17:00 22.204410246O18ONO55
18:00 21.904310247ONO18ONO60
19:00 21.204210246ONO16OSO60
20:00 19.904910244O8O60
21:00 17.205610253SO11SSO0
22:00 15.706010253NE10NE0
23:00 14.606210264ENE11ENE0
minuit 13.706410265ENE11ENE0

Graphique du 19-04-2019

 

Serveur OMMA